Airfield :
LOGIN :

Register | Disclaimer

   EN    FR    IT 

 










Legend :    VFR   Marginal VFR   IFR   Intensive IFR   Very Intensive IFR
Visi :
Ceiling :
>= 8 km
>= 3000ft
5 to 8 km
1000 to 3000 ft
1500m to 5 km
500 to 1000 ft
800 to 1500m
200 to 500 ft
< 800m
< 200 ft
Symbols :   Thunderstorms  Fog  Heavy snow  Heavy precipitations  Wind > 20 kt
SIGMETs :     Misc.  Thunderstorms  Icing  Turbulence  Mountain Waves  Volcanic Ashes







- Airport Elevation : 20 ft


EBFN - Koksijde

CURRENT METAR :
  • 210925Z 35008KT 9999 SCT070 BKN220 21/16 Q1013 BLU BLU

EXPIRED METARs :
  • 210855Z 34007KT 9999 BKN070 BKN220 20/14 Q1013 BLU BLU
  • 210825Z 34006KT 9999 BKN070 BKN220 20/14 Q1013 BLU BLU
  • 210821Z 34006KT 9999 BKN070 BKN220 20/14 Q1013 BLU BLU
  • 210755Z AUTO 35005KT 9999 OVC072/// 20/13 Q1013 BLU
  • 210725Z AUTO 36005KT 9999 OVC067/// 19/12 Q1013 BLU
  • 210655Z AUTO 35006KT 9000 SCT070/// BKN082/// BKN100/// 19/13 Q1013 BLU
  • 210625Z AUTO 35005KT 9999 OVC077/// 19/13 Q1013 BLU

TAF TAF EBFN
Valid from the 21 at 10:00 until the 21 at 19:00 UTC


210841Z 2110/2119 35007KT 9999 BKN070
BECMG 2113/2115 SCT080
No reported NOTAMs for that airfield.



MET'MAP, your aeronautical weather chart ! - Copyright ORBIFLY December 2007 - Disclaimer

ORBIFLY MET'MAP TEAM :

Programming & Development : Alexandra Zaïnal
Concept & Development : Baudouin d'Aumeries
Co-Development & Prog : Marc-Olivier Méhu
Technical & hardware support : Manuel Goepfert

Contact : metmap@orbifly.com




SOURCES & CREDITS :

   NOAA